Time;durP1;ratioP1;P1;durP2;ratioP2;P2;SDS_P1;SDS_P2;PMS_P1;PMS_P2;Temp;Humidity;BMP_temperature;BMP_pressure;BME280_temperature;BME280_humidity;BME280_pressure;Samples;Min_cycle;Max_cycle;Signal;HPM_P1;HPM_P2
2022/07/30 00:00:03;;;;;;;8.90;6.43;;;17.10;99.90;;;;;;4911584;29;19926;-76
2022/07/30 00:02:31;;;;;;;8.15;6.32;;;17.10;99.90;;;;;;4910186;29;20047;-77
2022/07/30 00:04:56;;;;;;;;;;;17.10;99.90;;;;;;4909488;29;20433;-77
2022/07/30 00:07:22;;;;;;;8.90;5.95;;;17.00;99.90;;;;;;4916268;29;19923;-76
2022/07/30 00:09:49;;;;;;;9.93;6.65;;;17.00;99.90;;;;;;4910341;29;20048;-78
2022/07/30 00:12:15;;;;;;;8.55;7.10;;;17.10;99.90;;;;;;4909222;29;20075;-77
2022/07/30 00:14:40;;;;;;;9.15;7.15;;;17.10;99.90;;;;;;4913947;29;20101;-77
2022/07/30 00:17:06;;;;;;;10.15;7.40;;;17.10;99.90;;;;;;4913988;29;20092;-75
2022/07/30 00:19:32;;;;;;;11.15;7.07;;;17.10;99.90;;;;;;4912509;29;20048;-77
2022/07/30 00:21:58;;;;;;;8.65;6.97;;;17.00;99.90;;;;;;4895214;29;20052;-76
2022/07/30 00:24:23;;;;;;;10.10;7.68;;;17.00;99.90;;;;;;4894496;29;20056;-75
2022/07/30 00:26:49;;;;;;;10.73;8.48;;;16.90;99.90;;;;;;4910082;29;20048;-77
2022/07/30 00:29:14;;;;;;;11.55;8.18;;;16.90;99.90;;;;;;4911935;29;20170;-76
2022/07/30 00:31:40;;;;;;;10.52;8.13;;;16.90;99.90;;;;;;4896029;29;20369;-77
2022/07/30 00:34:06;;;;;;;10.60;7.93;;;16.90;99.90;;;;;;4912871;29;20048;-76
2022/07/30 00:36:32;;;;;;;10.65;7.90;;;16.90;99.90;;;;;;4911793;29;20048;-76
2022/07/30 00:38:58;;;;;;;11.85;8.75;;;16.80;99.90;;;;;;4914782;29;20028;-77
2022/07/30 00:41:24;;;;;;;10.30;8.40;;;16.80;99.90;;;;;;4908398;29;20056;-78
2022/07/30 00:43:50;;;;;;;10.73;8.52;;;16.80;99.90;;;;;;4909359;29;20036;-75
2022/07/30 00:46:16;;;;;;;12.00;8.73;;;16.70;99.90;;;;;;4912356;29;20778;-77
2022/07/30 00:48:42;;;;;;;10.80;7.68;;;16.80;99.90;;;;;;4914133;29;20135;-77
2022/07/30 00:51:08;;;;;;;8.90;7.32;;;16.70;99.90;;;;;;4906492;29;20052;-77
2022/07/30 00:53:34;;;;;;;11.30;7.85;;;16.70;99.90;;;;;;4896740;29;20052;-77
2022/07/30 00:56:00;;;;;;;11.43;8.93;;;16.60;99.90;;;;;;4910973;29;20037;-77
2022/07/30 00:58:26;;;;;;;12.50;9.30;;;16.60;99.90;;;;;;4909400;29;20558;-76
2022/07/30 01:00:52;;;;;;;14.98;8.80;;;16.60;99.90;;;;;;4895815;29;20131;-77
2022/07/30 01:03:18;;;;;;;9.73;8.63;;;16.60;99.90;;;;;;4910279;29;20394;-77
2022/07/30 01:05:44;;;;;;;12.57;9.10;;;16.60;99.90;;;;;;4913697;29;20136;-77
2022/07/30 01:08:10;;;;;;;10.38;8.90;;;16.60;99.90;;;;;;4910083;29;20480;-77
2022/07/30 01:10:36;;;;;;;9.60;8.13;;;16.60;99.90;;;;;;4912276;29;20044;-78
2022/07/30 01:13:03;;;;;;;9.57;7.68;;;16.60;99.90;;;;;;4906385;29;20077;-76
2022/07/30 01:15:30;;;;;;;8.15;7.35;;;16.50;99.90;;;;;;4912989;29;20131;-78
2022/07/30 01:17:59;;;;;;;10.35;7.95;;;16.50;99.90;;;;;;4913011;29;20091;-76
2022/07/30 01:20:36;;;;;;;10.27;8.77;;;16.40;99.90;;;;;;4896809;29;20148;-77
2022/07/30 01:23:11;;;;;;;10.95;8.98;;;16.40;99.90;;;;;;4910723;29;20135;-76
2022/07/30 01:25:55;;;;;;;11.85;9.90;;;16.30;99.90;;;;;;4911010;29;20179;-77
2022/07/30 01:28:26;;;;;;;11.65;10.45;;;16.30;99.90;;;;;;4911697;29;20104;-77
2022/07/30 01:30:53;;;;;;;12.13;9.35;;;16.30;99.90;;;;;;4912356;29;20484;-77
2022/07/30 01:33:21;;;;;;;11.93;10.23;;;16.30;99.90;;;;;;4909809;29;20136;-77
2022/07/30 01:35:49;;;;;;;12.48;10.10;;;16.30;99.90;;;;;;4891359;29;20059;-77
2022/07/30 01:38:20;;;;;;;12.73;10.50;;;16.30;99.90;;;;;;4909820;29;20403;-77
2022/07/30 01:40:48;;;;;;;13.13;10.75;;;16.40;99.90;;;;;;4912818;29;20448;-76
2022/07/30 01:43:15;;;;;;;13.05;11.07;;;16.40;99.90;;;;;;4911692;29;20432;-77
2022/07/30 01:45:41;;;;;;;13.85;10.80;;;16.40;99.90;;;;;;4911107;29;20036;-77
2022/07/30 01:48:10;;;;;;;10.98;9.25;;;16.40;99.90;;;;;;4909112;29;20495;-78
2022/07/30 01:50:36;;;;;;;11.13;8.10;;;16.30;99.90;;;;;;4913742;29;20891;-77
2022/07/30 01:53:02;;;;;;;10.40;9.07;;;16.30;99.90;;;;;;4893852;29;20076;-77
2022/07/30 01:55:37;;;;;;;9.05;8.15;;;16.20;99.90;;;;;;4914179;29;20055;-78
2022/07/30 01:58:05;;;;;;;9.75;8.65;;;16.10;99.90;;;;;;4911441;29;20055;-76
2022/07/30 02:00:35;;;;;;;11.10;10.00;;;16.20;99.90;;;;;;4905754;29;20151;-78
2022/07/30 02:03:01;;;;;;;12.52;10.80;;;16.20;99.90;;;;;;4909604;29;20054;-76
2022/07/30 02:05:30;;;;;;;12.27;10.98;;;16.20;99.90;;;;;;4911445;29;20411;-76
2022/07/30 02:08:02;;;;;;;12.88;10.02;;;16.10;99.90;;;;;;4894435;29;20096;-77
2022/07/30 02:10:38;;;;;;;11.20;10.00;;;16.20;99.90;;;;;;4894513;29;20047;-77
2022/07/30 02:13:07;;;;;;;13.80;10.70;;;16.10;99.90;;;;;;4909302;29;20054;-77
2022/07/30 02:15:51;;;;;;;11.45;10.30;;;16.00;99.90;;;;;;4914703;29;20054;-76
2022/07/30 02:18:37;;;;;;;13.13;11.20;;;16.00;99.90;;;;;;4913668;29;20119;-77
2022/07/30 02:21:05;;;;;;;13.13;11.45;;;15.90;99.90;;;;;;4911557;29;20508;-75
2022/07/30 02:23:39;;;;;;;11.40;10.15;;;15.90;99.90;;;;;;4910522;29;20145;-75
2022/07/30 02:26:07;;;;;;;12.68;9.63;;;15.90;99.90;;;;;;4903042;29;20064;-77
2022/07/30 02:28:38;;;;;;;9.73;8.73;;;15.80;99.90;;;;;;4893073;29;20479;-78
2022/07/30 02:31:06;;;;;;;9.95;8.40;;;15.80;99.90;;;;;;4911475;29;20099;-77
2022/07/30 02:33:40;;;;;;;9.82;8.80;;;15.70;99.90;;;;;;4894680;29;20044;-76
2022/07/30 02:36:07;;;;;;;10.90;9.50;;;15.70;99.90;;;;;;4909493;29;20059;-76
2022/07/30 02:38:35;;;;;;;11.20;9.27;;;15.60;99.90;;;;;;4903937;29;20048;-77
2022/07/30 02:41:01;;;;;;;9.95;8.27;;;15.60;99.90;;;;;;4911871;29;20048;-74
2022/07/30 02:43:30;;;;;;;8.80;7.88;;;15.70;99.90;;;;;;4912831;29;20047;-77
2022/07/30 02:45:59;;;;;;;9.52;8.52;;;15.70;99.90;;;;;;4911540;29;20103;-76
2022/07/30 02:48:27;;;;;;;10.98;8.23;;;15.70;99.90;;;;;;4895802;29;20052;-76
2022/07/30 02:50:55;;;;;;;9.85;8.13;;;15.70;99.90;;;;;;4896683;29;20131;-76
2022/07/30 02:53:22;;;;;;;9.20;7.75;;;15.60;99.90;;;;;;4901406;29;20055;-77
2022/07/30 02:55:49;;;;;;;11.02;7.65;;;15.60;99.90;;;;;;4910482;29;20048;-76
2022/07/30 02:58:18;;;;;;;9.32;8.25;;;15.50;99.90;;;;;;4909299;29;20058;-77
2022/07/30 03:00:44;;;;;;;11.27;8.27;;;15.50;99.90;;;;;;4910672;29;20449;-76
2022/07/30 03:03:11;;;;;;;10.50;8.32;;;15.40;99.90;;;;;;4909096;29;20107;-77
2022/07/30 03:05:39;;;;;;;11.68;9.13;;;15.40;99.90;;;;;;4908336;29;20078;-77
2022/07/30 03:08:07;;;;;;;10.55;9.55;;;15.40;99.90;;;;;;4909116;29;20083;-76
2022/07/30 03:10:33;;;;;;;;;;;15.40;99.90;;;;;;4910286;29;20047;-77
2022/07/30 03:13:01;;;;;;;14.00;11.07;;;15.40;99.90;;;;;;4892172;29;19938;-77
2022/07/30 03:15:28;;;;;;;10.80;9.40;;;15.30;99.90;;;;;;4890598;29;20099;-78
2022/07/30 03:17:55;;;;;;;;;;;15.40;99.90;;;;;;4887287;29;20044;-77
2022/07/30 03:20:26;;;;;;;11.18;9.25;;;15.30;99.90;;;;;;4905691;29;19923;-76
2022/07/30 03:22:54;;;;;;;14.30;11.50;;;15.30;99.90;;;;;;4890379;29;20052;-77
2022/07/30 03:25:25;;;;;;;10.90;9.77;;;15.30;99.90;;;;;;4911370;29;20040;-76
2022/07/30 03:27:53;;;;;;;12.27;10.75;;;15.30;99.90;;;;;;4908589;29;20488;-78
2022/07/30 03:30:19;;;;;;;12.15;10.70;;;15.30;99.90;;;;;;4911752;29;20091;-76
2022/07/30 03:32:45;;;;;;;13.52;11.55;;;15.30;99.90;;;;;;4889873;29;20585;-76
2022/07/30 03:35:11;;;;;;;14.10;10.45;;;15.30;99.90;;;;;;4910064;29;20067;-78
2022/07/30 03:37:39;;;;;;;12.80;10.30;;;15.30;99.90;;;;;;4908719;29;20486;-76
2022/07/30 03:40:05;;;;;;;;;;;15.30;99.90;;;;;;4909807;29;20072;-75
2022/07/30 03:42:32;;;;;;;11.77;10.33;;;15.20;99.90;;;;;;4894379;29;19923;-77
2022/07/30 03:45:00;;;;;;;12.55;11.25;;;15.20;99.90;;;;;;4907645;29;20054;-77
2022/07/30 03:47:26;;;;;;;14.15;12.18;;;15.20;99.90;;;;;;4910606;29;20044;-78
2022/07/30 03:49:52;;;;;;;14.60;11.60;;;15.20;99.90;;;;;;4891612;29;20108;-80
2022/07/30 03:52:19;;;;;;;14.55;12.90;;;15.20;99.90;;;;;;4910359;29;20048;-76
2022/07/30 03:54:46;;;;;;;15.15;13.57;;;15.20;99.90;;;;;;4892883;29;20395;-78
2022/07/30 03:57:12;;;;;;;14.45;12.95;;;15.20;99.90;;;;;;4891950;29;20112;-78
2022/07/30 03:59:38;;;;;;;13.45;11.95;;;15.10;99.90;;;;;;4909780;29;20449;-78
2022/07/30 04:02:03;;;;;;;13.18;11.50;;;15.10;99.90;;;;;;4908685;29;20148;-75
2022/07/30 04:04:29;;;;;;;14.18;12.30;;;15.20;99.90;;;;;;4908544;29;20066;-77
2022/07/30 04:06:58;;;;;;;15.23;12.40;;;15.10;99.90;;;;;;4905763;29;20044;-77
2022/07/30 04:09:24;;;;;;;14.70;13.13;;;15.10;99.90;;;;;;4909835;29;20040;-77
2022/07/30 04:11:50;;;;;;;14.38;12.60;;;15.00;99.90;;;;;;4907146;29;20044;-77
2022/07/30 04:14:16;;;;;;;14.77;13.27;;;15.10;99.90;;;;;;4910237;29;20056;-75
2022/07/30 04:16:58;;;;;;;14.43;12.95;;;15.10;99.90;;;;;;4910000;29;20456;-76
2022/07/30 04:19:45;;;;;;;15.45;13.90;;;15.10;99.90;;;;;;4910706;29;20048;-76
2022/07/30 04:22:14;;;;;;;14.85;13.35;;;15.20;99.90;;;;;;4908158;29;20662;-75
2022/07/30 04:24:42;;;;;;;13.82;12.40;;;15.20;99.90;;;;;;4904833;29;21944;-78
2022/07/30 04:27:09;;;;;;;15.05;13.05;;;15.20;99.90;;;;;;4908889;29;20103;-78
2022/07/30 04:29:34;;;;;;;15.38;13.48;;;15.20;99.90;;;;;;4911351;29;20080;-77
2022/07/30 04:32:00;;;;;;;15.85;12.88;;;15.20;99.90;;;;;;4894109;29;20150;-77
2022/07/30 04:34:26;;;;;;;15.20;12.93;;;15.30;99.90;;;;;;4913863;29;20043;-78
2022/07/30 04:36:52;;;;;;;14.57;12.98;;;15.30;99.90;;;;;;4905276;29;20056;-76
2022/07/30 04:39:18;;;;;;;15.88;13.27;;;15.30;99.90;;;;;;4898349;29;20040;-77
2022/07/30 04:41:44;;;;;;;14.98;13.38;;;15.30;99.90;;;;;;4896217;29;20052;-79
2022/07/30 04:44:10;;;;;;;15.27;13.77;;;15.30;99.90;;;;;;4912987;29;20400;-77
2022/07/30 04:46:35;;;;;;;15.63;12.80;;;15.30;99.90;;;;;;4911684;29;20048;-79
2022/07/30 04:49:01;;;;;;;14.77;13.27;;;15.30;99.90;;;;;;4914018;29;20067;-76
2022/07/30 04:51:34;;;;;;;18.15;14.32;;;15.30;99.90;;;;;;4909757;29;20043;-76
2022/07/30 04:54:01;;;;;;;15.30;13.73;;;15.30;99.90;;;;;;4906937;29;20076;-77
2022/07/30 04:56:29;;;;;;;15.32;13.77;;;15.30;99.90;;;;;;4912312;29;20048;-75
2022/07/30 04:58:55;;;;;;;15.32;13.73;;;15.40;99.90;;;;;;4899551;29;20496;-77
2022/07/30 05:01:23;;;;;;;16.17;14.02;;;15.40;99.90;;;;;;4912100;29;20492;-75
2022/07/30 05:03:51;;;;;;;17.70;15.23;;;15.50;99.90;;;;;;4911477;29;20127;-77
2022/07/30 05:06:18;;;;;;;17.52;15.40;;;15.50;99.90;;;;;;4910212;29;20692;-76
2022/07/30 05:08:44;;;;;;;;;;;15.60;99.90;;;;;;4898956;29;20080;-76
2022/07/30 05:11:12;;;;;;;18.00;16.10;;;15.60;99.90;;;;;;4912570;29;19993;-76
2022/07/30 05:13:39;;;;;;;;;;;15.70;99.90;;;;;;4905556;29;20036;-75
2022/07/30 05:16:04;;;;;;;16.58;14.85;;;15.70;99.90;;;;;;4894624;29;19927;-76
2022/07/30 05:18:30;;;;;;;17.60;15.10;;;15.70;99.90;;;;;;4910265;29;20056;-76
2022/07/30 05:20:56;;;;;;;17.08;15.32;;;15.80;99.90;;;;;;4912712;29;20415;-77
2022/07/30 05:23:21;;;;;;;19.65;15.68;;;15.90;99.90;;;;;;4906607;29;20068;-77
2022/07/30 05:25:47;;;;;;;15.55;13.88;;;16.00;99.90;;;;;;4911045;29;20077;-76
2022/07/30 05:28:12;;;;;;;16.58;14.93;;;16.00;99.90;;;;;;4913162;29;20044;-74
2022/07/30 05:30:38;;;;;;;16.90;15.23;;;16.10;99.90;;;;;;4914215;29;20044;-78
2022/07/30 05:33:04;;;;;;;19.17;16.98;;;16.10;99.90;;;;;;4913732;29;20047;-77
2022/07/30 05:35:30;;;;;;;18.98;17.05;;;16.20;99.90;;;;;;4913948;29;20092;-79
2022/07/30 05:37:55;;;;;;;19.60;17.50;;;16.30;99.90;;;;;;4910643;29;20048;-77
2022/07/30 05:40:21;;;;;;;19.70;17.50;;;16.30;99.90;;;;;;4914341;29;20039;-76
2022/07/30 05:42:46;;;;;;;19.17;17.25;;;16.40;99.90;;;;;;4911084;29;20076;-78
2022/07/30 05:45:12;;;;;;;21.23;17.90;;;16.40;99.90;;;;;;4910786;29;20122;-79
2022/07/30 05:47:38;;;;;;;22.05;18.88;;;16.50;99.90;;;;;;4905198;29;20052;-76
2022/07/30 05:50:04;;;;;;;20.73;18.65;;;16.50;99.90;;;;;;4909533;29;20047;-77
2022/07/30 05:52:29;;;;;;;21.75;19.73;;;16.60;99.90;;;;;;4913598;29;20052;-77
2022/07/30 05:54:55;;;;;;;20.85;18.85;;;16.60;99.90;;;;;;4910897;29;20056;-77
2022/07/30 05:57:21;;;;;;;20.33;18.33;;;16.70;99.90;;;;;;4892855;29;20496;-76
2022/07/30 05:59:46;;;;;;;20.08;18.08;;;16.80;99.90;;;;;;4911872;29;20043;-77
2022/07/30 06:02:12;;;;;;;19.17;17.25;;;16.80;99.90;;;;;;4908870;29;20074;-76
2022/07/30 06:04:38;;;;;;;18.73;17.13;;;16.90;99.90;;;;;;4911924;29;20186;-76
2022/07/30 06:07:03;;;;;;;18.13;16.42;;;16.80;99.90;;;;;;4912274;29;20055;-78
2022/07/30 06:09:29;;;;;;;17.05;15.45;;;16.80;99.90;;;;;;4912380;29;20055;-72
2022/07/30 06:11:55;;;;;;;17.02;15.52;;;16.80;99.90;;;;;;4898044;29;20412;-74
2022/07/30 06:14:24;;;;;;;14.70;13.40;;;16.80;99.90;;;;;;4905762;29;20060;-73
2022/07/30 06:16:51;;;;;;;14.73;13.43;;;16.80;99.90;;;;;;4911631;29;20055;-75
2022/07/30 06:19:19;;;;;;;15.52;13.98;;;16.80;99.90;;;;;;4890554;29;20512;-73
2022/07/30 06:21:47;;;;;;;15.02;13.63;;;16.80;99.90;;;;;;4910962;29;20083;-73
2022/07/30 06:24:13;;;;;;;14.85;13.55;;;16.80;99.90;;;;;;4906062;29;20159;-74
2022/07/30 06:26:42;;;;;;;16.70;14.13;;;16.80;99.90;;;;;;4901470;29;20063;-74
2022/07/30 06:29:08;;;;;;;15.93;14.35;;;16.80;99.90;;;;;;4907030;29;20240;-71
2022/07/30 06:31:34;;;;;;;15.90;14.40;;;16.80;99.90;;;;;;4907318;29;20080;-72
2022/07/30 06:34:00;;;;;;;15.68;14.25;;;16.80;99.90;;;;;;4910240;29;20936;-73
2022/07/30 06:36:25;;;;;;;15.77;14.27;;;16.80;99.90;;;;;;4911244;29;20056;-76
2022/07/30 06:38:54;;;;;;;16.65;15.05;;;16.80;99.90;;;;;;4905503;29;20040;-72
2022/07/30 06:41:19;;;;;;;16.58;14.88;;;16.90;99.90;;;;;;4907762;29;21898;-74
2022/07/30 06:43:45;;;;;;;15.55;14.25;;;17.00;99.90;;;;;;4906912;29;20072;-74
2022/07/30 06:46:11;;;;;;;15.57;13.85;;;17.10;99.90;;;;;;4899670;29;20091;-75
2022/07/30 06:48:37;;;;;;;15.15;13.57;;;17.20;99.90;;;;;;4905229;29;20120;-72
2022/07/30 06:51:06;;;;;;;14.32;12.82;;;17.30;99.90;;;;;;4907379;29;20048;-75
2022/07/30 06:53:31;;;;;;;13.98;12.60;;;17.40;99.90;;;;;;4888447;29;20047;-73
2022/07/30 06:55:58;;;;;;;14.95;13.35;;;17.50;99.90;;;;;;4889297;29;20059;-73
2022/07/30 06:58:24;;;;;;;13.95;12.55;;;17.50;99.90;;;;;;4907789;29;20051;-75
2022/07/30 07:00:52;;;;;;;13.95;12.63;;;17.60;99.90;;;;;;4905233;29;20040;-74
2022/07/30 07:03:18;;;;;;;15.45;13.68;;;17.70;99.90;;;;;;4890452;29;20111;-73
2022/07/30 07:05:44;;;;;;;13.60;12.25;;;17.80;99.90;;;;;;4908726;29;20433;-72
2022/07/30 07:08:09;;;;;;;14.88;13.38;;;17.80;99.90;;;;;;4909188;29;20463;-73
2022/07/30 07:10:39;;;;;;;14.13;12.70;;;17.90;99.90;;;;;;4903623;29;20142;-73
2022/07/30 07:13:05;;;;;;;14.98;13.55;;;18.10;99.90;;;;;;4897777;29;20388;-74
2022/07/30 07:15:31;;;;;;;14.80;13.30;;;18.10;99.90;;;;;;4899665;29;20040;-76
2022/07/30 07:17:57;;;;;;;14.55;13.05;;;18.20;99.90;;;;;;4898535;29;20453;-76
2022/07/30 07:20:23;;;;;;;15.48;13.98;;;18.30;99.90;;;;;;4909761;29;20048;-75
2022/07/30 07:22:48;;;;;;;17.85;14.60;;;18.40;99.90;;;;;;4910753;29;20044;-76
2022/07/30 07:25:14;;;;;;;16.88;14.88;;;18.40;99.90;;;;;;4912153;29;20519;-79
2022/07/30 07:27:40;;;;;;;15.32;13.82;;;18.60;99.90;;;;;;4910584;29;20100;-76
2022/07/30 07:30:09;;;;;;;16.15;14.43;;;18.60;99.90;;;;;;4908991;29;20522;-78
2022/07/30 07:32:35;;;;;;;16.55;14.80;;;18.60;99.90;;;;;;4912716;29;20052;-77
2022/07/30 07:35:01;;;;;;;16.23;14.63;;;18.70;99.90;;;;;;4912217;29;20086;-75
2022/07/30 07:37:27;;;;;;;16.92;15.20;;;18.80;99.90;;;;;;4901624;29;20080;-77
2022/07/30 07:39:54;;;;;;;15.60;14.00;;;18.90;99.90;;;;;;4898359;29;20079;-75
2022/07/30 07:42:20;;;;;;;16.20;14.15;;;18.90;99.90;;;;;;4909513;29;20062;-79
2022/07/30 07:44:45;;;;;;;16.60;13.90;;;19.00;99.90;;;;;;4902125;29;20044;-80
2022/07/30 07:47:11;;;;;;;15.35;13.93;;;19.10;99.90;;;;;;4904574;29;20051;-78
2022/07/30 07:49:37;;;;;;;15.30;13.80;;;19.10;99.90;;;;;;4906218;29;20072;-79
2022/07/30 07:52:03;;;;;;;16.23;14.63;;;19.20;99.90;;;;;;4892662;29;20053;-76
2022/07/30 07:54:28;;;;;;;16.23;14.70;;;19.20;99.90;;;;;;4893596;29;20519;-77
2022/07/30 07:56:57;;;;;;;17.23;15.00;;;19.20;99.90;;;;;;4895819;29;20041;-79
2022/07/30 07:59:23;;;;;;;15.05;13.55;;;19.30;99.90;;;;;;4903344;29;20056;-77
2022/07/30 08:01:49;;;;;;;15.75;14.10;;;19.40;99.90;;;;;;4908720;29;20073;-81
2022/07/30 08:04:15;;;;;;;15.80;13.70;;;19.50;99.90;;;;;;4906719;29;20488;-75
2022/07/30 08:06:41;;;;;;;16.17;14.30;;;19.50;99.90;;;;;;4906073;29;20084;-75
2022/07/30 08:09:07;;;;;;;15.75;14.20;;;19.60;99.90;;;;;;4916251;29;20466;-75
2022/07/30 08:11:32;;;;;;;15.52;13.93;;;19.70;99.90;;;;;;4897643;29;20075;-76
2022/07/30 08:13:58;;;;;;;15.88;14.32;;;19.80;99.90;;;;;;4897388;29;20532;-76
2022/07/30 08:16:23;;;;;;;17.52;13.80;;;19.90;99.90;;;;;;4915896;29;20036;-74
2022/07/30 08:18:49;;;;;;;15.98;14.50;;;19.90;99.90;;;;;;4896287;29;20059;-78
2022/07/30 08:21:15;;;;;;;16.15;14.13;;;20.00;99.90;;;;;;4909406;29;20072;-79
2022/07/30 08:23:42;;;;;;;17.15;13.93;;;20.00;99.90;;;;;;4912568;29;20064;-77
2022/07/30 08:26:09;;;;;;;19.98;13.80;;;20.10;99.90;;;;;;4912137;29;20088;-77
2022/07/30 08:28:35;;;;;;;14.38;12.93;;;20.20;99.90;;;;;;4914622;29;20440;-78
2022/07/30 08:31:01;;;;;;;14.98;13.43;;;20.30;99.90;;;;;;4915097;29;20121;-76
2022/07/30 08:33:26;;;;;;;17.38;14.68;;;20.30;99.90;;;;;;4914601;29;20485;-77
2022/07/30 08:35:52;;;;;;;18.17;14.05;;;20.30;99.90;;;;;;4914807;29;20048;-77
2022/07/30 08:38:18;;;;;;;15.50;12.88;;;20.30;99.90;;;;;;4913857;29;20052;-79
2022/07/30 08:40:43;;;;;;;14.88;12.85;;;20.30;99.90;;;;;;4895029;29;20666;-77
2022/07/30 08:43:10;;;;;;;15.18;11.93;;;20.30;99.90;;;;;;4914067;29;20055;-77
2022/07/30 08:45:36;;;;;;;15.77;13.40;;;20.30;99.90;;;;;;4914736;29;20048;-77
2022/07/30 08:48:09;;;;;;;14.73;12.97;;;20.40;99.90;;;;;;4910266;29;20048;-77
2022/07/30 08:50:35;;;;;;;16.40;13.40;;;20.50;99.90;;;;;;4912799;29;20307;-74
2022/07/30 08:53:01;;;;;;;14.85;12.90;;;20.60;99.90;;;;;;4897439;29;20040;-74
2022/07/30 08:55:27;;;;;;;17.02;13.07;;;20.70;99.90;;;;;;4912739;29;20048;-76
2022/07/30 08:57:53;;;;;;;15.25;12.95;;;20.70;99.90;;;;;;4910166;29;20107;-77
2022/07/30 09:00:20;;;;;;;14.50;12.93;;;20.60;99.90;;;;;;4912528;29;20044;-75
2022/07/30 09:02:46;;;;;;;13.63;12.18;;;20.70;99.90;;;;;;4914630;29;20056;-75
2022/07/30 09:05:12;;;;;;;15.25;12.60;;;20.70;99.90;;;;;;4898448;29;20046;-75
2022/07/30 09:07:39;;;;;;;20.63;14.17;;;20.80;99.90;;;;;;4912506;29;20371;-75
2022/07/30 09:10:06;;;;;;;13.45;12.07;;;20.80;99.90;;;;;;4910148;29;20128;-75
2022/07/30 09:12:33;;;;;;;15.02;12.00;;;20.80;99.90;;;;;;4895399;29;20074;-76
2022/07/30 09:15:10;;;;;;;11.57;9.93;;;20.90;99.90;;;;;;4908887;29;20055;-76
2022/07/30 09:17:51;;;;;;;12.57;9.65;;;21.00;99.90;;;;;;4893939;29;20045;-76
2022/07/30 09:20:18;;;;;;;10.38;8.60;;;21.10;99.90;;;;;;4891853;29;20401;-79
2022/07/30 09:22:56;;;;;;;11.68;8.27;;;21.10;99.90;;;;;;4913398;29;20047;-80
2022/07/30 09:25:43;;;;;;;10.43;8.10;;;21.20;99.90;;;;;;4913643;29;20499;-80
2022/07/30 09:28:10;;;;;;;11.50;7.45;;;21.30;99.90;;;;;;4911443;29;20119;-79
2022/07/30 09:31:06;;;;;;;12.82;9.02;;;21.40;99.90;;;;;;4914588;29;20036;-81
2022/07/30 09:33:39;;;;;;;11.50;8.10;;;21.50;99.90;;;;;;4900637;29;20051;-77
2022/07/30 09:36:07;;;;;;;11.57;7.80;;;21.60;99.90;;;;;;4909179;29;20107;-77
2022/07/30 09:38:50;;;;;;;12.93;7.35;;;21.70;99.90;;;;;;4898662;29;20059;-77
2022/07/30 09:41:34;;;;;;;11.63;7.82;;;21.80;99.90;;;;;;4900647;29;20055;-78
2022/07/30 09:44:03;;;;;;;15.13;8.02;;;21.80;99.90;;;;;;4893510;29;20440;-79
2022/07/30 09:46:46;;;;;;;12.30;8.05;;;21.80;99.90;;;;;;4892447;29;20058;-79
2022/07/30 09:49:19;;;;;;;13.50;8.35;;;21.90;99.90;;;;;;4912479;29;20059;-78
2022/07/30 09:51:45;;;;;;;8.57;6.60;;;21.90;99.90;;;;;;4913280;29;20048;-77
2022/07/30 09:54:11;;;;;;;11.27;7.28;;;21.90;99.90;;;;;;4910918;29;20410;-76
2022/07/30 09:56:38;;;;;;;12.93;7.60;;;22.00;99.90;;;;;;4912402;29;20127;-77
2022/07/30 09:59:05;;;;;;;;;;;22.10;99.90;;;;;;4913767;29;20044;-77
2022/07/30 10:01:52;;;;;;;13.63;6.53;;;22.10;99.90;;;;;;4905834;29;19923;-77
2022/07/30 10:04:28;;;;;;;12.73;5.80;;;22.30;99.90;;;;;;4895805;29;20044;-77
2022/07/30 10:06:55;;;;;;;7.90;5.07;;;22.40;99.90;;;;;;4912663;29;20055;-77
2022/07/30 10:09:27;;;;;;;8.18;4.80;;;22.50;99.90;;;;;;4908322;29;20056;-76
2022/07/30 10:11:58;;;;;;;9.73;4.85;;;22.70;99.90;;;;;;4901047;29;20095;-76
2022/07/30 10:14:36;;;;;;;10.43;3.72;;;22.80;99.90;;;;;;4911552;29;20118;-76
2022/07/30 10:17:02;;;;;;;9.43;4.20;;;22.80;99.90;;;;;;4908055;29;20046;-77
2022/07/30 10:19:30;;;;;;;10.57;4.25;;;22.90;99.90;;;;;;4883673;29;20388;-77
2022/07/30 10:21:56;;;;;;;11.98;4.35;;;22.90;99.90;;;;;;4908074;29;20048;-76
2022/07/30 10:24:23;;;;;;;8.80;4.60;;;23.00;99.90;;;;;;4897587;29;20503;-76
2022/07/30 10:26:51;;;;;;;11.57;4.30;;;23.10;99.90;;;;;;4891486;29;20052;-78
2022/07/30 10:29:18;;;;;;;10.48;4.07;;;23.20;99.90;;;;;;4890380;29;20080;-77
2022/07/30 10:31:45;;;;;;;7.00;4.28;;;23.30;99.90;;;;;;4903188;29;21949;-80
2022/07/30 10:34:12;;;;;;;9.35;4.55;;;23.30;99.90;;;;;;4905940;29;20076;-75
2022/07/30 10:36:44;;;;;;;6.43;3.50;;;23.30;99.90;;;;;;4909710;29;20139;-75
2022/07/30 10:39:14;;;;;;;7.88;4.28;;;23.30;99.90;;;;;;4907979;29;20142;-74
2022/07/30 10:42:00;;;;;;;7.80;3.20;;;23.30;99.90;;;;;;4892695;29;20054;-75
2022/07/30 10:44:47;;;;;;;6.20;3.95;;;23.40;99.90;;;;;;4909482;29;20385;-76
2022/07/30 10:47:15;;;;;;;;;;;23.50;99.90;;;;;;4910071;29;20062;-78
2022/07/30 10:49:41;;;;;;;10.25;3.50;;;23.50;99.90;;;;;;4899523;29;20311;-78
2022/07/30 10:52:07;;;;;;;8.60;3.47;;;23.60;99.90;;;;;;4910903;29;20048;-77
2022/07/30 10:54:32;;;;;;;8.18;3.70;;;23.70;99.90;;;;;;4910956;29;20044;-79
2022/07/30 10:57:19;;;;;;;7.53;3.25;;;23.80;99.90;;;;;;4911754;29;20047;-78
2022/07/30 10:59:59;;;;;;;10.93;3.63;;;23.90;99.90;;;;;;4894627;29;20397;-79
2022/07/30 11:02:26;;;;;;;6.93;3.20;;;24.00;99.90;;;;;;4912772;29;20044;-78
2022/07/30 11:05:11;;;;;;;;;;;24.10;99.90;;;;;;4894509;29;20503;-77
2022/07/30 11:07:36;;;;;;;7.45;3.17;;;24.20;99.90;;;;;;4905212;29;19923;-78
2022/07/30 11:10:03;;;;;;;9.68;3.53;;;24.30;99.90;;;;;;4904763;29;20096;-77
2022/07/30 11:12:41;;;;;;;7.40;3.38;;;24.40;99.90;;;;;;4890578;29;20044;-76
2022/07/30 11:15:14;;;;;;;7.93;3.33;;;24.40;99.90;;;;;;4901578;29;20219;-77
2022/07/30 11:18:01;;;;;;;8.52;3.30;;;24.40;99.90;;;;;;4884085;29;20692;-76
2022/07/30 11:20:29;;;;;;;7.93;3.40;;;24.40;99.90;;;;;;4906626;29;20481;-78
2022/07/30 11:23:27;;;;;;;8.25;3.40;;;24.40;99.90;;;;;;4887795;29;20044;-74
2022/07/30 11:25:53;;;;;;;7.25;3.05;;;24.40;99.00;;;;;;4884831;29;20060;-76
2022/07/30 11:28:38;;;;;;;7.43;3.47;;;24.40;98.80;;;;;;4906874;29;20136;-76
2022/07/30 11:31:42;;;;;;;9.45;3.67;;;24.40;99.90;;;;;;4901210;29;20056;-75
2022/07/30 11:34:20;;;;;;;9.45;3.75;;;24.60;99.90;;;;;;4892862;29;20048;-76
2022/07/30 11:37:18;;;;;;;7.95;3.38;;;24.70;99.10;;;;;;4910215;29;20055;-75
2022/07/30 11:39:52;;;;;;;8.45;3.45;;;24.70;99.80;;;;;;4881898;29;20060;-76
2022/07/30 11:42:29;;;;;;;6.57;3.08;;;24.80;98.10;;;;;;4896383;29;20060;-75
2022/07/30 11:45:25;;;;;;;6.60;3.00;;;24.90;98.10;;;;;;4911026;29;20052;-74
2022/07/30 11:47:54;;;;;;;7.63;3.42;;;25.00;96.80;;;;;;4903552;29;20411;-75
2022/07/30 11:50:32;;;;;;;8.40;3.22;;;25.00;95.20;;;;;;4914090;29;20558;-75
2022/07/30 11:53:00;;;;;;;11.35;3.08;;;25.00;96.10;;;;;;4914200;29;20059;-76
2022/07/30 11:55:31;;;;;;;8.10;3.28;;;24.90;98.00;;;;;;4914614;29;20147;-76
2022/07/30 11:57:58;;;;;;;6.90;3.03;;;24.90;97.90;;;;;;4912625;29;20051;-74
2022/07/30 12:00:25;;;;;;;9.27;3.17;;;24.90;97.60;;;;;;4895433;29;20040;-74
2022/07/30 12:02:50;;;;;;;8.32;2.90;;;24.90;95.10;;;;;;4896957;29;20432;-74
2022/07/30 12:05:24;;;;;;;7.57;2.78;;;25.00;96.00;;;;;;4897571;29;20052;-76
2022/07/30 12:07:50;;;;;;;6.47;2.50;;;25.10;94.10;;;;;;4914181;29;20054;-75
2022/07/30 12:10:20;;;;;;;5.95;2.17;;;25.20;89.30;;;;;;4913412;29;20050;-76
2022/07/30 12:12:46;;;;;;;6.13;2.78;;;25.20;87.50;;;;;;4910114;29;20092;-75
2022/07/30 12:15:28;;;;;;;7.45;2.60;;;25.20;87.20;;;;;;4893376;29;20060;-74
2022/07/30 12:17:54;;;;;;;6.10;2.50;;;25.10;87.70;;;;;;4912514;29;20051;-75
2022/07/30 12:20:20;;;;;;;7.38;2.70;;;25.00;90.90;;;;;;4914321;29;20044;-75
2022/07/30 12:22:46;;;;;;;9.15;2.70;;;25.10;90.60;;;;;;4914393;29;20040;-75
2022/07/30 12:25:13;;;;;;;5.28;2.10;;;25.10;88.60;;;;;;4913255;29;20056;-75
2022/07/30 12:27:43;;;;;;;7.15;2.60;;;25.20;90.50;;;;;;4911843;29;20048;-75
2022/07/30 12:30:09;;;;;;;6.35;2.45;;;25.20;91.20;;;;;;4909780;29;20056;-75
2022/07/30 12:32:35;;;;;;;5.55;2.50;;;25.40;93.50;;;;;;4912496;29;20481;-75
2022/07/30 12:35:01;;;;;;;5.60;2.85;;;25.50;85.00;;;;;;4913332;29;20055;-75
2022/07/30 12:37:28;;;;;;;6.03;2.55;;;25.50;87.60;;;;;;4913553;29;20055;-75
2022/07/30 12:40:09;;;;;;;7.53;3.22;;;25.40;82.70;;;;;;4913453;29;20128;-76
2022/07/30 12:42:36;;;;;;;6.45;2.55;;;25.40;82.30;;;;;;4914221;29;20104;-75